This is the latest recevied weather packets stored in our database for station/object OE3BCB-14. If no packets are shown the sender has not sent any weather packets the latest 10 day(s).
| Time | Temp. | Humidity | Pressure | Rain* | Wind** | Luminosity | Snow |
|---|---|---|---|---|---|---|---|
| 1777885354 | 29.44° C | 31% | 1017.1 hPa | - | - | 274 W/m² | - |
| 1777885051 | 30° C | 32% | 1017 hPa | - | - | 282 W/m² | - |
| 1777884749 | 30° C | 32% | 1017.1 hPa | - | - | 273 W/m² | - |
| 1777884446 | 28.89° C | 34% | 1017 hPa | - | - | 281 W/m² | - |
| 1777884144 | 28.89° C | 33% | 1017 hPa | - | - | 243 W/m² | - |
| 1777883842 | 28.89° C | 33% | 1017 hPa | - | - | 188 W/m² | - |
| 1777883539 | 28.89° C | 33% | 1017 hPa | - | - | 278 W/m² | - |
| 1777883237 | 28.89° C | 34% | 1016.9 hPa | - | - | 256 W/m² | - |
| 1777882934 | 28.89° C | 34% | 1016.9 hPa | - | - | 294 W/m² | - |
| 1777882632 | 29.44° C | 35% | 1016.9 hPa | - | - | 308 W/m² | - |
| 1777882330 | 27.78° C | 36% | 1016.9 hPa | - | - | 278 W/m² | - |
| 1777882027 | 25.56° C | 36% | 1016.9 hPa | - | - | 163 W/m² | - |
| 1777881725 | 26.67° C | 36% | 1016.8 hPa | - | - | 183 W/m² | - |
| 1777881422 | 26.67° C | 37% | 1016.8 hPa | - | - | 250 W/m² | - |
| 1777881120 | 25.56° C | 37% | 1016.8 hPa | - | - | 182 W/m² | - |
| 1777880818 | 25° C | 36% | 1016.8 hPa | - | - | 175 W/m² | - |
| 1777880213 | 25° C | 37% | 1016.8 hPa | - | - | 93 W/m² | - |
| 1777879910 | 25° C | 38% | 1016.8 hPa | - | - | 91 W/m² | - |
| 1777879305 | 25° C | 38% | 1016.7 hPa | - | - | 77 W/m² | - |
| 1777878701 | 24.44° C | 39% | 1016.7 hPa | - | - | 66 W/m² | - |
| 1777878398 | 25° C | 39% | 1016.7 hPa | - | - | 62 W/m² | - |
| 1777878096 | 24.44° C | 40% | 1016.7 hPa | - | - | 58 W/m² | - |
| 1777877793 | 23.89° C | 40% | 1016.7 hPa | - | - | 52 W/m² | - |
| 1777877189 | 23.89° C | 40% | 1016.7 hPa | - | - | 40 W/m² | - |
| 1777876886 | 24.44° C | 40% | 1016.7 hPa | - | - | 41 W/m² | - |
* Rain since midnight (hover to see other rain measurements)
** Current wind speed in m/s (hover to see current wind gust speed)